createdAt,value
2018-10-12T00:04:15.584Z,100526.61
2018-10-12T00:09:19.036Z,100527.48
2018-10-12T00:14:22.489Z,100541.78
2018-10-12T00:19:26.238Z,100543.38
2018-10-12T00:24:29.673Z,100552.66
2018-10-12T00:29:33.308Z,100554.84
2018-10-12T00:34:36.742Z,100551.44
2018-10-12T00:39:40.184Z,100550.56
2018-10-12T00:44:43.672Z,100566.47
2018-10-12T00:49:47.137Z,100564.00
2018-10-12T00:54:50.576Z,100560.22
2018-10-12T00:59:54.017Z,100562.80
2018-10-12T01:04:57.491Z,100570.72
2018-10-12T01:10:00.944Z,100581.83
2018-10-12T01:15:04.895Z,100581.36
2018-10-12T01:20:08.929Z,100583.78
2018-10-12T01:25:13.353Z,100585.13
2018-10-12T01:30:16.856Z,100591.00
2018-10-12T01:35:20.357Z,100596.25
2018-10-12T01:40:23.902Z,100604.31
2018-10-12T01:45:27.394Z,100603.20
2018-10-12T01:50:30.872Z,100607.61
2018-10-12T02:00:36.881Z,100612.77
2018-10-12T02:05:40.499Z,100613.37
2018-10-12T02:10:44.060Z,100614.84
2018-10-12T02:15:47.780Z,100622.41
2018-10-12T02:20:51.276Z,100626.69
2018-10-12T02:25:54.751Z,100621.67
2018-10-12T02:30:58.229Z,100627.54
2018-10-12T02:36:01.709Z,100630.37
2018-10-12T02:41:05.196Z,100635.39
2018-10-12T02:46:08.716Z,100623.66
2018-10-12T02:51:12.429Z,100627.19
2018-10-12T02:56:21.266Z,100638.20
2018-10-12T03:01:24.722Z,100649.69
2018-10-12T03:06:28.185Z,100648.47
2018-10-12T03:11:31.697Z,100655.19
2018-10-12T03:16:35.157Z,100663.95
2018-10-12T03:21:38.616Z,100660.53
2018-10-12T03:26:42.064Z,100672.39
2018-10-12T03:31:45.517Z,100674.70
2018-10-12T03:36:48.969Z,100678.22
2018-10-12T03:41:52.418Z,100686.41
2018-10-12T03:46:55.876Z,100689.22
2018-10-12T03:51:59.403Z,100692.03
2018-10-12T03:57:02.819Z,100699.88
2018-10-12T04:02:06.269Z,100699.84
2018-10-12T04:07:09.729Z,100696.55
2018-10-12T04:12:13.174Z,100700.09
2018-10-12T04:17:16.616Z,100711.20
2018-10-12T04:22:23.354Z,100714.87
2018-10-12T04:27:26.808Z,100712.67
2018-10-12T04:32:30.267Z,100718.63
2018-10-12T04:37:33.895Z,100733.65
2018-10-12T04:42:37.365Z,100742.20
2018-10-12T04:47:40.832Z,100746.72
2018-10-12T04:52:44.264Z,100746.72
2018-10-12T04:57:47.704Z,100751.23
2018-10-12T05:08:07.543Z,100739.27
2018-10-12T05:13:10.978Z,100744.27
2018-10-12T05:18:14.412Z,100757.55
2018-10-12T05:23:17.897Z,100774.39
2018-10-12T05:28:21.378Z,100780.45
2018-10-12T05:33:24.878Z,100775.32
2018-10-12T05:38:29.636Z,100783.98
2018-10-12T05:43:33.226Z,100783.98
2018-10-12T05:48:47.910Z,100789.48
2018-10-12T05:53:52.028Z,100793.63
2018-10-12T05:58:55.466Z,100795.42
2018-10-12T06:03:59.196Z,100800.80
2018-10-12T06:09:02.640Z,100802.74
2018-10-12T06:14:06.096Z,100816.06
2018-10-12T06:19:09.529Z,100831.31
2018-10-12T06:24:12.986Z,100830.09
2018-10-12T06:29:16.465Z,100851.09
2018-10-12T06:34:19.920Z,100857.44
2018-10-12T06:39:23.400Z,100854.38
2018-10-12T06:44:26.857Z,100858.05
2018-10-12T06:49:30.309Z,100858.98
2018-10-12T06:54:33.751Z,100857.64
2018-10-12T06:59:37.189Z,100865.70
2018-10-12T07:04:40.624Z,100884.42
2018-10-12T07:09:44.124Z,100884.30
2018-10-12T07:14:47.581Z,100884.67
2018-10-12T07:19:51.020Z,100901.52
2018-10-12T07:24:54.464Z,100912.73
2018-10-12T07:29:57.917Z,100924.30
2018-10-12T07:35:01.374Z,100930.34
2018-10-12T07:40:06.129Z,100935.33
2018-10-12T07:45:09.621Z,100936.84
2018-10-12T07:50:13.130Z,100940.48
2018-10-12T07:55:16.596Z,100940.86
2018-10-12T08:00:20.210Z,100948.14
2018-10-12T08:05:23.661Z,100958.27
2018-10-12T08:10:27.114Z,100954.37
2018-10-12T08:15:30.561Z,100974.84
2018-10-12T08:20:34.164Z,100982.29
2018-10-12T08:25:37.485Z,100988.38
2018-10-12T08:30:40.917Z,100985.64
2018-10-12T08:35:44.365Z,100986.21
2018-10-12T08:40:47.800Z,100992.03
2018-10-12T08:45:51.271Z,100995.47
2018-10-12T08:50:54.724Z,100986.23
2018-10-12T08:55:58.192Z,100980.68
2018-10-12T09:01:01.629Z,100987.66
2018-10-12T09:06:05.081Z,100985.50
2018-10-12T09:11:08.555Z,100988.38
2018-10-12T09:16:12.039Z,100991.33
2018-10-12T09:21:15.454Z,101002.33
2018-10-12T09:26:18.897Z,101005.01
2018-10-12T09:31:22.350Z,101002.70
2018-10-12T09:36:25.863Z,101002.52
2018-10-12T09:41:29.264Z,101002.03
2018-10-12T09:46:32.724Z,101011.31
2018-10-12T09:51:36.148Z,101018.78
2018-10-12T09:56:39.617Z,101007.66
2018-10-12T10:01:48.270Z,101020.98
2018-10-12T10:06:51.753Z,101015.98
2018-10-12T10:11:55.205Z,101015.31
2018-10-12T10:16:58.650Z,101018.33
2018-10-12T10:22:02.245Z,101020.42
2018-10-12T10:27:05.680Z,101019.23
2018-10-12T10:32:09.176Z,101024.83
2018-10-12T10:37:12.570Z,101028.22
2018-10-12T10:42:15.988Z,101025.98
2018-10-12T10:47:19.404Z,101028.22
2018-10-12T10:52:22.832Z,101017.55
2018-10-12T10:57:26.249Z,101026.87
2018-10-12T11:02:29.664Z,101021.50
2018-10-12T11:07:33.082Z,101020.16
2018-10-12T11:12:36.539Z,101013.44
2018-10-12T11:17:39.946Z,101013.70
2018-10-12T11:22:43.352Z,101015.91
2018-10-12T11:27:46.768Z,101008.82
2018-10-12T11:32:50.300Z,101006.87
2018-10-12T11:37:53.756Z,101008.97
2018-10-12T11:43:08.359Z,101003.97
2018-10-12T11:48:11.781Z,101009.83
2018-10-12T11:53:15.202Z,101009.52
2018-10-12T11:58:18.674Z,101000.13
2018-10-12T12:03:22.301Z,100997.33
2018-10-12T12:08:25.736Z,100996.28
2018-10-12T12:13:29.154Z,100996.16
2018-10-12T12:18:32.577Z,100995.11
2018-10-12T12:23:36.015Z,100995.75
2018-10-12T12:28:39.510Z,100993.91
2018-10-12T12:33:42.925Z,101001.48
2018-10-12T12:38:46.376Z,100992.46
2018-10-12T12:43:49.784Z,100994.66
2018-10-12T12:48:53.648Z,100991.30
2018-10-12T12:53:56.731Z,100967.65
2018-10-12T12:59:00.086Z,100993.38
2018-10-12T13:04:03.500Z,100995.84
2018-10-12T13:09:08.205Z,100991.70
2018-10-12T13:14:11.622Z,100991.59
2018-10-12T13:19:15.035Z,100994.56
2018-10-12T13:24:18.480Z,100990.53
2018-10-12T13:29:21.900Z,100998.97
2018-10-12T13:34:25.317Z,101000.68
2018-10-12T13:39:28.748Z,101002.77
2018-10-12T13:44:32.164Z,101006.31
2018-10-12T13:49:35.572Z,101016.80
2018-10-12T13:54:39.010Z,101010.58
2018-10-12T13:59:42.451Z,101015.95
2018-10-12T14:04:45.897Z,101020.47
2018-10-12T14:09:49.341Z,101013.75
2018-10-12T14:14:53.021Z,101015.47
2018-10-12T14:19:56.467Z,101021.92
2018-10-12T14:24:59.960Z,101018.38
2018-10-12T14:30:03.541Z,101005.69
2018-10-12T14:35:06.977Z,101004.94
2018-10-12T14:40:10.422Z,101008.97
2018-10-12T14:45:13.867Z,101021.70
2018-10-12T14:50:17.297Z,101022.30
2018-10-12T14:55:20.717Z,101013.00
2018-10-12T15:00:24.218Z,101006.36
2018-10-12T15:05:27.726Z,101014.83
2018-10-12T15:10:31.109Z,101020.66
2018-10-12T15:15:34.541Z,101022.78
2018-10-12T15:20:37.955Z,101030.84
2018-10-12T15:25:41.433Z,101021.92
2018-10-12T15:30:44.811Z,101017.30
2018-10-12T15:35:48.213Z,101025.73
2018-10-12T15:40:51.621Z,101022.05
2018-10-12T15:45:55.041Z,101024.17
2018-10-12T15:50:58.492Z,101030.97
2018-10-12T15:56:01.902Z,101032.31
2018-10-12T16:01:05.312Z,101031.57
2018-10-12T16:06:08.766Z,101029.48
2018-10-12T16:11:12.152Z,101037.17
2018-10-12T16:16:15.556Z,101039.00
2018-10-12T16:21:18.960Z,101043.89
2018-10-12T16:26:23.570Z,101045.23
2018-10-12T16:31:26.995Z,101047.70
2018-10-12T16:36:30.435Z,101060.34
2018-10-12T16:41:33.899Z,101058.77
2018-10-12T16:46:37.360Z,101060.00
2018-10-12T16:51:40.792Z,101073.81
2018-10-12T16:56:44.208Z,101077.96
2018-10-12T17:01:47.617Z,101084.05
2018-10-12T17:06:51.037Z,101083.12
2018-10-12T17:11:54.459Z,101095.83
2018-10-12T17:16:57.880Z,101099.00
2018-10-12T17:22:01.301Z,101101.31
2018-10-12T17:27:04.758Z,101095.34
2018-10-12T17:32:08.213Z,101108.63
2018-10-12T17:37:11.774Z,101108.89
2018-10-12T17:42:17.653Z,101112.92
2018-10-12T17:47:21.605Z,101123.19
2018-10-12T17:52:25.187Z,101123.94
2018-10-12T17:57:28.992Z,101130.73
2018-10-12T18:02:32.466Z,101128.52
2018-10-12T18:07:35.923Z,101133.67
2018-10-12T18:12:39.425Z,101136.81
2018-10-12T18:17:42.917Z,101138.34
2018-10-12T18:22:46.401Z,101135.58
2018-10-12T18:27:49.906Z,101136.70
2018-10-12T18:32:53.539Z,101137.06
2018-10-12T18:37:57.045Z,101143.19
2018-10-12T18:43:00.583Z,101147.71
2018-10-12T18:48:04.085Z,101146.85
2018-10-12T18:53:07.473Z,101150.40
2018-10-12T18:58:10.889Z,101149.80
2018-10-12T19:03:14.318Z,101154.48
2018-10-12T19:08:17.739Z,101152.67
2018-10-12T19:13:21.205Z,101156.73
2018-10-12T19:18:24.612Z,101156.97
2018-10-12T19:23:28.194Z,101161.14
2018-10-12T19:28:31.978Z,101159.55
2018-10-12T19:33:36.366Z,101161.26
2018-10-12T19:38:39.816Z,101164.23
2018-10-12T19:43:43.237Z,101161.74
2018-10-12T19:48:46.678Z,101164.12
2018-10-12T19:53:50.106Z,101164.12
2018-10-12T19:58:53.539Z,101157.89
2018-10-12T20:03:56.959Z,101165.25
2018-10-12T20:09:00.402Z,101162.93
2018-10-12T20:14:03.916Z,101164.02
2018-10-12T20:19:07.439Z,101168.30
2018-10-12T20:24:11.034Z,101161.39
2018-10-12T20:29:14.485Z,101164.64
2018-10-12T20:34:18.034Z,101162.81
2018-10-12T20:39:21.515Z,101159.19
2018-10-12T20:44:25.011Z,101152.95
2018-10-12T20:49:28.432Z,101165.72
2018-10-12T20:54:31.920Z,101164.38
2018-10-12T20:59:35.343Z,101159.36
2018-10-12T21:04:39.071Z,101167.80
2018-10-12T21:09:42.792Z,101169.00
2018-10-12T21:14:46.478Z,101169.41
2018-10-12T21:19:49.959Z,101175.28
2018-10-12T21:24:53.429Z,101171.84
2018-10-12T21:29:57.140Z,101172.58
2018-10-12T21:35:00.931Z,101169.52
2018-10-12T21:40:04.543Z,101171.98
2018-10-12T21:45:08.299Z,101175.65
2018-10-12T21:50:12.101Z,101176.80
2018-10-12T21:55:15.878Z,101184.58
2018-10-12T22:00:19.293Z,101192.22
2018-10-12T22:05:23.140Z,101185.87
2018-10-12T22:10:26.559Z,101183.15
2018-10-12T22:15:30.040Z,101184.50
2018-10-12T22:20:33.623Z,101183.15
2018-10-12T22:25:37.119Z,101180.46
2018-10-12T22:30:40.660Z,101190.16
2018-10-12T22:35:44.188Z,101195.06
2018-10-12T22:40:47.624Z,101192.71
2018-10-12T22:45:51.053Z,101188.30
2018-10-12T22:50:54.506Z,101188.12
2018-10-12T22:55:58.044Z,101185.73
2018-10-12T23:01:01.463Z,101181.69
2018-10-12T23:06:04.878Z,101179.48
2018-10-12T23:11:08.293Z,101174.00
2018-10-12T23:16:11.712Z,101182.44
2018-10-12T23:21:15.144Z,101185.50
2018-10-12T23:26:18.550Z,101187.70
2018-10-12T23:31:21.961Z,101186.36
2018-10-12T23:36:25.381Z,101183.67
2018-10-12T23:41:29.085Z,101182.66
2018-10-12T23:46:32.497Z,101176.73
2018-10-12T23:51:35.907Z,101194.66
2018-10-12T23:56:39.328Z,101197.86
